sensor_id;sensor_type;location;lat;lon;timestamp;P1;durP1;ratioP1;P2;durP2;ratioP2
37299;SDS011;23184;51.902;12.836;2022-10-16T00:01:22;2.90;;;1.58;;
37299;SDS011;23184;51.902;12.836;2022-10-16T00:03:50;2.75;;;1.40;;
37299;SDS011;23184;51.902;12.836;2022-10-16T00:06:17;2.33;;;1.60;;
37299;SDS011;23184;51.902;12.836;2022-10-16T00:08:43;3.38;;;1.70;;
37299;SDS011;23184;51.902;12.836;2022-10-16T00:11:22;3.00;;;1.42;;
37299;SDS011;23184;51.902;12.836;2022-10-16T00:13:50;2.53;;;1.33;;
37299;SDS011;23184;51.902;12.836;2022-10-16T00:16:17;1.85;;;1.55;;
37299;SDS011;23184;51.902;12.836;2022-10-16T00:18:43;4.25;;;1.70;;
37299;SDS011;23184;51.902;12.836;2022-10-16T00:21:10;2.97;;;1.60;;
37299;SDS011;23184;51.902;12.836;2022-10-16T00:23:37;5.28;;;1.33;;
37299;SDS011;23184;51.902;12.836;2022-10-16T00:26:05;2.47;;;1.50;;
37299;SDS011;23184;51.902;12.836;2022-10-16T00:28:33;2.25;;;1.33;;
37299;SDS011;23184;51.902;12.836;2022-10-16T00:30:59;5.75;;;1.48;;
37299;SDS011;23184;51.902;12.836;2022-10-16T00:33:31;2.08;;;1.30;;
37299;SDS011;23184;51.902;12.836;2022-10-16T00:35:58;1.80;;;1.70;;
37299;SDS011;23184;51.902;12.836;2022-10-16T00:38:25;4.88;;;1.70;;
37299;SDS011;23184;51.902;12.836;2022-10-16T00:40:50;3.25;;;1.40;;
37299;SDS011;23184;51.902;12.836;2022-10-16T00:46:04;1.65;;;1.15;;
37299;SDS011;23184;51.902;12.836;2022-10-16T00:48:35;3.05;;;1.63;;
37299;SDS011;23184;51.902;12.836;2022-10-16T00:51:01;3.30;;;1.92;;
37299;SDS011;23184;51.902;12.836;2022-10-16T00:53:29;3.00;;;1.45;;
37299;SDS011;23184;51.902;12.836;2022-10-16T00:55:59;6.35;;;2.17;;
37299;SDS011;23184;51.902;12.836;2022-10-16T00:58:25;3.03;;;1.50;;
37299;SDS011;23184;51.902;12.836;2022-10-16T01:00:50;2.58;;;1.88;;
37299;SDS011;23184;51.902;12.836;2022-10-16T01:03:25;5.75;;;1.70;;
37299;SDS011;23184;51.902;12.836;2022-10-16T01:05:59;2.28;;;1.73;;
37299;SDS011;23184;51.902;12.836;2022-10-16T01:08:41;3.10;;;1.80;;
37299;SDS011;23184;51.902;12.836;2022-10-16T01:11:33;3.83;;;1.52;;
37299;SDS011;23184;51.902;12.836;2022-10-16T01:14:18;3.20;;;1.70;;
37299;SDS011;23184;51.902;12.836;2022-10-16T01:16:54;1.88;;;1.50;;
37299;SDS011;23184;51.902;12.836;2022-10-16T01:22:56;3.13;;;1.87;;
37299;SDS011;23184;51.902;12.836;2022-10-16T01:25:36;2.75;;;1.77;;
37299;SDS011;23184;51.902;12.836;2022-10-16T01:28:05;1.77;;;1.25;;
37299;SDS011;23184;51.902;12.836;2022-10-16T01:30:36;1.75;;;1.33;;
37299;SDS011;23184;51.902;12.836;2022-10-16T01:35:38;2.08;;;1.55;;
37299;SDS011;23184;51.902;12.836;2022-10-16T01:41:54;3.30;;;1.63;;
37299;SDS011;23184;51.902;12.836;2022-10-16T01:44:02;2.00;;;1.45;;
37299;SDS011;23184;51.902;12.836;2022-10-16T01:46:33;2.10;;;1.42;;
37299;SDS011;23184;51.902;12.836;2022-10-16T01:49:02;2.42;;;1.50;;
37299;SDS011;23184;51.902;12.836;2022-10-16T01:51:29;2.67;;;1.45;;
37299;SDS011;23184;51.902;12.836;2022-10-16T01:53:55;1.98;;;1.40;;
37299;SDS011;23184;51.902;12.836;2022-10-16T01:56:23;3.60;;;1.50;;
37299;SDS011;23184;51.902;12.836;2022-10-16T01:58:54;1.42;;;1.30;;
37299;SDS011;23184;51.902;12.836;2022-10-16T02:01:24;1.63;;;1.38;;
37299;SDS011;23184;51.902;12.836;2022-10-16T02:03:54;1.55;;;1.30;;
37299;SDS011;23184;51.902;12.836;2022-10-16T02:06:23;2.40;;;1.40;;
37299;SDS011;23184;51.902;12.836;2022-10-16T02:08:50;1.92;;;1.70;;
37299;SDS011;23184;51.902;12.836;2022-10-16T02:11:16;1.83;;;1.70;;
37299;SDS011;23184;51.902;12.836;2022-10-16T02:13:43;2.03;;;1.25;;
37299;SDS011;23184;51.902;12.836;2022-10-16T02:16:13;2.70;;;1.73;;
37299;SDS011;23184;51.902;12.836;2022-10-16T02:18:40;2.33;;;1.45;;
37299;SDS011;23184;51.902;12.836;2022-10-16T02:21:23;2.20;;;1.33;;
37299;SDS011;23184;51.902;12.836;2022-10-16T02:24:03;2.80;;;1.58;;
37299;SDS011;23184;51.902;12.836;2022-10-16T02:26:57;2.78;;;1.42;;
37299;SDS011;23184;51.902;12.836;2022-10-16T02:29:29;3.13;;;1.73;;
37299;SDS011;23184;51.902;12.836;2022-10-16T02:31:58;3.53;;;1.55;;
37299;SDS011;23184;51.902;12.836;2022-10-16T02:34:27;3.10;;;1.48;;
37299;SDS011;23184;51.902;12.836;2022-10-16T02:36:55;3.47;;;1.70;;
37299;SDS011;23184;51.902;12.836;2022-10-16T02:39:30;4.90;;;1.58;;
37299;SDS011;23184;51.902;12.836;2022-10-16T02:41:56;1.50;;;1.40;;
37299;SDS011;23184;51.902;12.836;2022-10-16T02:44:21;3.47;;;1.50;;
37299;SDS011;23184;51.902;12.836;2022-10-16T02:46:47;1.98;;;1.48;;
37299;SDS011;23184;51.902;12.836;2022-10-16T02:49:12;1.65;;;1.30;;
37299;SDS011;23184;51.902;12.836;2022-10-16T02:51:38;6.20;;;1.50;;
37299;SDS011;23184;51.902;12.836;2022-10-16T02:54:03;3.85;;;1.95;;
37299;SDS011;23184;51.902;12.836;2022-10-16T02:56:29;1.73;;;1.60;;
37299;SDS011;23184;51.902;12.836;2022-10-16T02:58:55;2.75;;;1.48;;
37299;SDS011;23184;51.902;12.836;2022-10-16T03:01:21;2.10;;;1.65;;
37299;SDS011;23184;51.902;12.836;2022-10-16T03:03:47;1.70;;;1.60;;
37299;SDS011;23184;51.902;12.836;2022-10-16T03:06:12;2.95;;;2.05;;
37299;SDS011;23184;51.902;12.836;2022-10-16T03:08:38;1.40;;;1.30;;
37299;SDS011;23184;51.902;12.836;2022-10-16T03:11:04;2.17;;;1.80;;
37299;SDS011;23184;51.902;12.836;2022-10-16T03:13:29;2.72;;;1.80;;
37299;SDS011;23184;51.902;12.836;2022-10-16T03:15:55;2.70;;;1.67;;
37299;SDS011;23184;51.902;12.836;2022-10-16T03:18:20;5.10;;;1.70;;
37299;SDS011;23184;51.902;12.836;2022-10-16T03:20:46;3.28;;;1.50;;
37299;SDS011;23184;51.902;12.836;2022-10-16T03:23:12;2.08;;;1.40;;
37299;SDS011;23184;51.902;12.836;2022-10-16T03:25:37;1.88;;;1.42;;
37299;SDS011;23184;51.902;12.836;2022-10-16T03:28:03;2.38;;;1.40;;
37299;SDS011;23184;51.902;12.836;2022-10-16T03:30:29;3.97;;;1.98;;
37299;SDS011;23184;51.902;12.836;2022-10-16T03:32:54;4.05;;;1.45;;
37299;SDS011;23184;51.902;12.836;2022-10-16T03:35:20;4.60;;;1.55;;
37299;SDS011;23184;51.902;12.836;2022-10-16T03:37:46;2.80;;;1.40;;
37299;SDS011;23184;51.902;12.836;2022-10-16T03:40:12;4.13;;;1.55;;
37299;SDS011;23184;51.902;12.836;2022-10-16T03:42:38;2.35;;;1.52;;
37299;SDS011;23184;51.902;12.836;2022-10-16T03:45:04;1.42;;;1.27;;
37299;SDS011;23184;51.902;12.836;2022-10-16T03:47:30;2.13;;;1.65;;
37299;SDS011;23184;51.902;12.836;2022-10-16T03:49:57;3.60;;;1.67;;
37299;SDS011;23184;51.902;12.836;2022-10-16T03:52:23;6.90;;;2.17;;
37299;SDS011;23184;51.902;12.836;2022-10-16T03:54:49;3.13;;;1.70;;
37299;SDS011;23184;51.902;12.836;2022-10-16T03:57:14;2.35;;;1.65;;
37299;SDS011;23184;51.902;12.836;2022-10-16T03:59:40;3.63;;;1.50;;
37299;SDS011;23184;51.902;12.836;2022-10-16T04:02:05;1.83;;;1.67;;
37299;SDS011;23184;51.902;12.836;2022-10-16T04:04:31;2.92;;;1.30;;
37299;SDS011;23184;51.902;12.836;2022-10-16T04:06:56;3.05;;;1.40;;
37299;SDS011;23184;51.902;12.836;2022-10-16T04:09:22;4.30;;;1.40;;
37299;SDS011;23184;51.902;12.836;2022-10-16T04:11:47;1.65;;;1.42;;
37299;SDS011;23184;51.902;12.836;2022-10-16T04:14:13;1.92;;;1.48;;
37299;SDS011;23184;51.902;12.836;2022-10-16T04:16:39;1.73;;;1.63;;
37299;SDS011;23184;51.902;12.836;2022-10-16T04:19:04;2.15;;;1.48;;
37299;SDS011;23184;51.902;12.836;2022-10-16T04:21:30;1.52;;;1.27;;
37299;SDS011;23184;51.902;12.836;2022-10-16T04:23:55;2.97;;;1.30;;
37299;SDS011;23184;51.902;12.836;2022-10-16T04:26:21;3.70;;;1.50;;
37299;SDS011;23184;51.902;12.836;2022-10-16T04:28:46;1.95;;;1.45;;
37299;SDS011;23184;51.902;12.836;2022-10-16T04:31:12;1.95;;;1.35;;
37299;SDS011;23184;51.902;12.836;2022-10-16T04:33:37;2.65;;;1.40;;
37299;SDS011;23184;51.902;12.836;2022-10-16T04:36:03;2.00;;;1.23;;
37299;SDS011;23184;51.902;12.836;2022-10-16T04:38:29;2.30;;;1.48;;
37299;SDS011;23184;51.902;12.836;2022-10-16T04:40:55;2.20;;;1.70;;
37299;SDS011;23184;51.902;12.836;2022-10-16T04:43:21;2.65;;;1.33;;
37299;SDS011;23184;51.902;12.836;2022-10-16T04:45:47;1.90;;;1.60;;
37299;SDS011;23184;51.902;12.836;2022-10-16T04:48:12;2.78;;;1.55;;
37299;SDS011;23184;51.902;12.836;2022-10-16T04:50:38;3.90;;;1.58;;
37299;SDS011;23184;51.902;12.836;2022-10-16T04:53:03;2.45;;;1.40;;
37299;SDS011;23184;51.902;12.836;2022-10-16T04:55:29;1.75;;;1.33;;
37299;SDS011;23184;51.902;12.836;2022-10-16T04:57:55;2.00;;;1.50;;
37299;SDS011;23184;51.902;12.836;2022-10-16T05:00:20;1.95;;;1.50;;
37299;SDS011;23184;51.902;12.836;2022-10-16T05:02:47;3.03;;;1.33;;
37299;SDS011;23184;51.902;12.836;2022-10-16T05:05:14;1.50;;;1.40;;
37299;SDS011;23184;51.902;12.836;2022-10-16T05:07:39;3.53;;;1.75;;
37299;SDS011;23184;51.902;12.836;2022-10-16T05:10:05;1.80;;;1.30;;
37299;SDS011;23184;51.902;12.836;2022-10-16T05:12:31;2.22;;;1.40;;
37299;SDS011;23184;51.902;12.836;2022-10-16T05:14:56;3.15;;;1.38;;
37299;SDS011;23184;51.902;12.836;2022-10-16T05:17:23;1.23;;;1.13;;
37299;SDS011;23184;51.902;12.836;2022-10-16T05:19:50;3.13;;;1.30;;
37299;SDS011;23184;51.902;12.836;2022-10-16T05:22:15;1.60;;;1.40;;
37299;SDS011;23184;51.902;12.836;2022-10-16T05:24:41;3.70;;;1.25;;
37299;SDS011;23184;51.902;12.836;2022-10-16T05:27:06;1.90;;;1.45;;
37299;SDS011;23184;51.902;12.836;2022-10-16T05:29:32;2.47;;;1.50;;
37299;SDS011;23184;51.902;12.836;2022-10-16T05:31:57;1.98;;;1.50;;
37299;SDS011;23184;51.902;12.836;2022-10-16T05:34:23;3.17;;;1.30;;
37299;SDS011;23184;51.902;12.836;2022-10-16T05:36:49;2.78;;;1.38;;
37299;SDS011;23184;51.902;12.836;2022-10-16T05:39:15;4.50;;;1.45;;
37299;SDS011;23184;51.902;12.836;2022-10-16T05:41:41;1.65;;;1.40;;
37299;SDS011;23184;51.902;12.836;2022-10-16T05:44:07;3.53;;;1.40;;
37299;SDS011;23184;51.902;12.836;2022-10-16T05:46:33;4.30;;;1.80;;
37299;SDS011;23184;51.902;12.836;2022-10-16T05:48:58;4.45;;;1.90;;
37299;SDS011;23184;51.902;12.836;2022-10-16T05:51:24;1.75;;;1.65;;
37299;SDS011;23184;51.902;12.836;2022-10-16T05:53:50;3.92;;;1.85;;
37299;SDS011;23184;51.902;12.836;2022-10-16T05:56:16;2.42;;;1.73;;
37299;SDS011;23184;51.902;12.836;2022-10-16T05:58:42;2.25;;;1.60;;
37299;SDS011;23184;51.902;12.836;2022-10-16T06:01:13;3.30;;;1.83;;
37299;SDS011;23184;51.902;12.836;2022-10-16T06:03:40;4.35;;;1.90;;
37299;SDS011;23184;51.902;12.836;2022-10-16T06:06:09;3.13;;;2.10;;
37299;SDS011;23184;51.902;12.836;2022-10-16T06:08:36;4.60;;;1.60;;
37299;SDS011;23184;51.902;12.836;2022-10-16T06:11:03;3.28;;;1.63;;
37299;SDS011;23184;51.902;12.836;2022-10-16T06:13:29;1.73;;;1.63;;
37299;SDS011;23184;51.902;12.836;2022-10-16T06:15:56;3.95;;;1.65;;
37299;SDS011;23184;51.902;12.836;2022-10-16T06:18:23;2.60;;;1.60;;
37299;SDS011;23184;51.902;12.836;2022-10-16T06:20:49;4.15;;;1.67;;
37299;SDS011;23184;51.902;12.836;2022-10-16T06:23:14;3.28;;;1.80;;
37299;SDS011;23184;51.902;12.836;2022-10-16T06:25:40;2.47;;;1.40;;
37299;SDS011;23184;51.902;12.836;2022-10-16T06:28:05;4.13;;;1.70;;
37299;SDS011;23184;51.902;12.836;2022-10-16T06:30:31;3.42;;;1.73;;
37299;SDS011;23184;51.902;12.836;2022-10-16T06:32:56;1.95;;;1.35;;
37299;SDS011;23184;51.902;12.836;2022-10-16T06:35:22;2.63;;;1.70;;
37299;SDS011;23184;51.902;12.836;2022-10-16T06:37:48;3.78;;;1.50;;
37299;SDS011;23184;51.902;12.836;2022-10-16T06:40:13;2.83;;;1.60;;
37299;SDS011;23184;51.902;12.836;2022-10-16T06:42:39;3.50;;;1.50;;
37299;SDS011;23184;51.902;12.836;2022-10-16T06:45:05;4.03;;;1.75;;
37299;SDS011;23184;51.902;12.836;2022-10-16T06:47:31;4.22;;;1.63;;
37299;SDS011;23184;51.902;12.836;2022-10-16T06:49:57;3.42;;;1.58;;
37299;SDS011;23184;51.902;12.836;2022-10-16T06:52:22;3.13;;;1.60;;
37299;SDS011;23184;51.902;12.836;2022-10-16T06:54:49;3.70;;;1.77;;
37299;SDS011;23184;51.902;12.836;2022-10-16T06:57:14;4.40;;;1.38;;
37299;SDS011;23184;51.902;12.836;2022-10-16T06:59:40;1.90;;;1.65;;
37299;SDS011;23184;51.902;12.836;2022-10-16T07:02:06;2.20;;;1.40;;
37299;SDS011;23184;51.902;12.836;2022-10-16T07:04:33;2.28;;;1.35;;
37299;SDS011;23184;51.902;12.836;2022-10-16T07:07:00;2.63;;;1.48;;
37299;SDS011;23184;51.902;12.836;2022-10-16T07:09:26;1.98;;;1.52;;
37299;SDS011;23184;51.902;12.836;2022-10-16T07:11:51;2.10;;;1.52;;
37299;SDS011;23184;51.902;12.836;2022-10-16T07:14:18;2.95;;;1.45;;
37299;SDS011;23184;51.902;12.836;2022-10-16T07:16:45;1.45;;;1.30;;
37299;SDS011;23184;51.902;12.836;2022-10-16T07:19:11;1.10;;;1.00;;
37299;SDS011;23184;51.902;12.836;2022-10-16T07:21:39;5.22;;;1.42;;
37299;SDS011;23184;51.902;12.836;2022-10-16T07:24:06;3.28;;;1.42;;
37299;SDS011;23184;51.902;12.836;2022-10-16T07:26:36;3.45;;;1.42;;
37299;SDS011;23184;51.902;12.836;2022-10-16T07:29:03;3.63;;;1.20;;
37299;SDS011;23184;51.902;12.836;2022-10-16T07:31:30;2.00;;;1.20;;
37299;SDS011;23184;51.902;12.836;2022-10-16T07:33:57;1.88;;;1.00;;
37299;SDS011;23184;51.902;12.836;2022-10-16T07:36:24;3.08;;;1.77;;
37299;SDS011;23184;51.902;12.836;2022-10-16T07:38:49;3.70;;;1.00;;
37299;SDS011;23184;51.902;12.836;2022-10-16T07:41:16;2.85;;;1.00;;
37299;SDS011;23184;51.902;12.836;2022-10-16T07:43:46;2.63;;;1.17;;
37299;SDS011;23184;51.902;12.836;2022-10-16T07:46:13;1.38;;;0.85;;
37299;SDS011;23184;51.902;12.836;2022-10-16T07:48:40;5.90;;;1.30;;
37299;SDS011;23184;51.902;12.836;2022-10-16T07:51:06;3.38;;;1.10;;
37299;SDS011;23184;51.902;12.836;2022-10-16T07:53:32;4.22;;;1.08;;
37299;SDS011;23184;51.902;12.836;2022-10-16T07:55:59;3.22;;;1.05;;
37299;SDS011;23184;51.902;12.836;2022-10-16T07:58:29;1.20;;;1.10;;
37299;SDS011;23184;51.902;12.836;2022-10-16T08:00:56;1.80;;;1.00;;
37299;SDS011;23184;51.902;12.836;2022-10-16T08:03:22;1.77;;;1.17;;
37299;SDS011;23184;51.902;12.836;2022-10-16T08:05:49;3.97;;;1.35;;
37299;SDS011;23184;51.902;12.836;2022-10-16T08:08:15;1.25;;;1.00;;
37299;SDS011;23184;51.902;12.836;2022-10-16T08:10:42;2.95;;;1.10;;
37299;SDS011;23184;51.902;12.836;2022-10-16T08:13:08;3.88;;;1.20;;
37299;SDS011;23184;51.902;12.836;2022-10-16T08:15:34;2.58;;;1.13;;
37299;SDS011;23184;51.902;12.836;2022-10-16T08:18:00;3.05;;;1.17;;
37299;SDS011;23184;51.902;12.836;2022-10-16T08:20:28;1.70;;;1.17;;
37299;SDS011;23184;51.902;12.836;2022-10-16T08:22:54;4.90;;;1.27;;
37299;SDS011;23184;51.902;12.836;2022-10-16T08:25:21;2.40;;;0.93;;
37299;SDS011;23184;51.902;12.836;2022-10-16T08:27:47;2.05;;;1.48;;
37299;SDS011;23184;51.902;12.836;2022-10-16T08:30:12;4.43;;;1.35;;
37299;SDS011;23184;51.902;12.836;2022-10-16T08:32:38;2.83;;;1.05;;
37299;SDS011;23184;51.902;12.836;2022-10-16T08:35:06;3.20;;;1.00;;
37299;SDS011;23184;51.902;12.836;2022-10-16T08:37:32;4.28;;;1.25;;
37299;SDS011;23184;51.902;12.836;2022-10-16T08:39:58;2.47;;;1.08;;
37299;SDS011;23184;51.902;12.836;2022-10-16T08:50:38;2.17;;;1.00;;
37299;SDS011;23184;51.902;12.836;2022-10-16T08:53:05;2.97;;;1.27;;
37299;SDS011;23184;51.902;12.836;2022-10-16T08:55:38;3.63;;;1.00;;
37299;SDS011;23184;51.902;12.836;2022-10-16T08:58:16;1.83;;;0.90;;
37299;SDS011;23184;51.902;12.836;2022-10-16T09:00:44;11.15;;;1.92;;
37299;SDS011;23184;51.902;12.836;2022-10-16T09:03:22;1.65;;;0.90;;
37299;SDS011;23184;51.902;12.836;2022-10-16T09:06:03;1.17;;;0.82;;
37299;SDS011;23184;51.902;12.836;2022-10-16T09:08:48;2.47;;;0.88;;
37299;SDS011;23184;51.902;12.836;2022-10-16T09:14:29;1.60;;;1.00;;
37299;SDS011;23184;51.902;12.836;2022-10-16T09:20:03;2.05;;;0.75;;
37299;SDS011;23184;51.902;12.836;2022-10-16T09:22:29;2.75;;;0.90;;
37299;SDS011;23184;51.902;12.836;2022-10-16T09:24:59;1.13;;;0.77;;
37299;SDS011;23184;51.902;12.836;2022-10-16T09:27:34;0.82;;;0.70;;
37299;SDS011;23184;51.902;12.836;2022-10-16T09:30:01;1.75;;;1.00;;
37299;SDS011;23184;51.902;12.836;2022-10-16T09:32:26;0.70;;;0.70;;
37299;SDS011;23184;51.902;12.836;2022-10-16T09:34:53;0.95;;;0.85;;
37299;SDS011;23184;51.902;12.836;2022-10-16T09:37:22;8.43;;;1.13;;
37299;SDS011;23184;51.902;12.836;2022-10-16T09:39:53;2.55;;;0.80;;
37299;SDS011;23184;51.902;12.836;2022-10-16T09:42:32;0.70;;;0.70;;
37299;SDS011;23184;51.902;12.836;2022-10-16T09:45:01;0.57;;;0.57;;
37299;SDS011;23184;51.902;12.836;2022-10-16T09:47:28;3.78;;;0.85;;
37299;SDS011;23184;51.902;12.836;2022-10-16T09:49:56;2.05;;;0.77;;
37299;SDS011;23184;51.902;12.836;2022-10-16T09:52:26;0.88;;;0.60;;
37299;SDS011;23184;51.902;12.836;2022-10-16T09:54:59;1.23;;;0.70;;
37299;SDS011;23184;51.902;12.836;2022-10-16T09:57:27;1.60;;;0.82;;
37299;SDS011;23184;51.902;12.836;2022-10-16T09:59:53;2.15;;;0.50;;
37299;SDS011;23184;51.902;12.836;2022-10-16T10:02:53;2.20;;;0.80;;
37299;SDS011;23184;51.902;12.836;2022-10-16T10:05:25;2.25;;;0.80;;
37299;SDS011;23184;51.902;12.836;2022-10-16T10:07:59;2.10;;;0.80;;
37299;SDS011;23184;51.902;12.836;2022-10-16T10:10:31;0.93;;;0.70;;
37299;SDS011;23184;51.902;12.836;2022-10-16T10:12:59;4.05;;;0.75;;
37299;SDS011;23184;51.902;12.836;2022-10-16T10:15:32;3.03;;;0.80;;
37299;SDS011;23184;51.902;12.836;2022-10-16T10:18:00;0.90;;;0.70;;
37299;SDS011;23184;51.902;12.836;2022-10-16T10:20:29;1.17;;;0.60;;
37299;SDS011;23184;51.902;12.836;2022-10-16T10:22:59;2.67;;;0.70;;
37299;SDS011;23184;51.902;12.836;2022-10-16T10:30:59;3.10;;;0.80;;
37299;SDS011;23184;51.902;12.836;2022-10-16T10:33:58;2.83;;;0.65;;
37299;SDS011;23184;51.902;12.836;2022-10-16T10:36:43;0.70;;;0.70;;
37299;SDS011;23184;51.902;12.836;2022-10-16T10:41:59;4.72;;;0.65;;
37299;SDS011;23184;51.902;12.836;2022-10-16T10:44:37;4.43;;;0.85;;
37299;SDS011;23184;51.902;12.836;2022-10-16T10:50:18;0.77;;;0.60;;
37299;SDS011;23184;51.902;12.836;2022-10-16T10:55:39;1.85;;;0.43;;
37299;SDS011;23184;51.902;12.836;2022-10-16T10:58:39;1.15;;;0.43;;
37299;SDS011;23184;51.902;12.836;2022-10-16T11:01:25;1.00;;;0.47;;
37299;SDS011;23184;51.902;12.836;2022-10-16T11:06:59;1.42;;;0.57;;
37299;SDS011;23184;51.902;12.836;2022-10-16T11:09:36;1.67;;;0.40;;
37299;SDS011;23184;51.902;12.836;2022-10-16T11:12:11;0.73;;;0.52;;
37299;SDS011;23184;51.902;12.836;2022-10-16T11:14:54;0.63;;;0.47;;
37299;SDS011;23184;51.902;12.836;2022-10-16T11:17:38;1.45;;;0.47;;
37299;SDS011;23184;51.902;12.836;2022-10-16T11:20:13;0.55;;;0.40;;
37299;SDS011;23184;51.902;12.836;2022-10-16T11:22:46;0.60;;;0.55;;
37299;SDS011;23184;51.902;12.836;2022-10-16T11:25:19;1.75;;;0.60;;
37299;SDS011;23184;51.902;12.836;2022-10-16T11:27:53;2.70;;;0.77;;
37299;SDS011;23184;51.902;12.836;2022-10-16T11:30:20;5.47;;;0.63;;
37299;SDS011;23184;51.902;12.836;2022-10-16T11:35:54;1.08;;;0.40;;
37299;SDS011;23184;51.902;12.836;2022-10-16T11:38:29;2.17;;;0.45;;
37299;SDS011;23184;51.902;12.836;2022-10-16T11:40:59;2.95;;;0.40;;
37299;SDS011;23184;51.902;12.836;2022-10-16T11:43:30;1.05;;;0.40;;
37299;SDS011;23184;51.902;12.836;2022-10-16T11:45:57;0.82;;;0.30;;
37299;SDS011;23184;51.902;12.836;2022-10-16T11:51:36;2.38;;;1.00;;
37299;SDS011;23184;51.902;12.836;2022-10-16T11:56:48;0.98;;;0.50;;
37299;SDS011;23184;51.902;12.836;2022-10-16T11:59:23;1.00;;;0.50;;
37299;SDS011;23184;51.902;12.836;2022-10-16T12:07:48;6.07;;;0.55;;
37299;SDS011;23184;51.902;12.836;2022-10-16T12:10:19;1.38;;;0.35;;
37299;SDS011;23184;51.902;12.836;2022-10-16T12:12:47;1.05;;;0.43;;
37299;SDS011;23184;51.902;12.836;2022-10-16T12:17:47;1.23;;;0.60;;
37299;SDS011;23184;51.902;12.836;2022-10-16T12:28:01;1.55;;;0.40;;
37299;SDS011;23184;51.902;12.836;2022-10-16T12:30:30;0.40;;;0.40;;
37299;SDS011;23184;51.902;12.836;2022-10-16T12:32:59;1.15;;;0.30;;
37299;SDS011;23184;51.902;12.836;2022-10-16T12:35:28;0.63;;;0.30;;
37299;SDS011;23184;51.902;12.836;2022-10-16T12:38:06;0.50;;;0.45;;
37299;SDS011;23184;51.902;12.836;2022-10-16T12:40:37;0.85;;;0.35;;
37299;SDS011;23184;51.902;12.836;2022-10-16T12:44:04;2.90;;;0.38;;
37299;SDS011;23184;51.902;12.836;2022-10-16T12:48:33;0.80;;;0.30;;
37299;SDS011;23184;51.902;12.836;2022-10-16T12:59:23;1.67;;;0.30;;
37299;SDS011;23184;51.902;12.836;2022-10-16T13:05:01;1.17;;;0.30;;
37299;SDS011;23184;51.902;12.836;2022-10-16T13:07:32;2.28;;;0.43;;
37299;SDS011;23184;51.902;12.836;2022-10-16T13:10:27;2.85;;;0.40;;
37299;SDS011;23184;51.902;12.836;2022-10-16T13:18:07;0.68;;;0.30;;
37299;SDS011;23184;51.902;12.836;2022-10-16T13:23:26;0.20;;;0.10;;
37299;SDS011;23184;51.902;12.836;2022-10-16T13:26:05;0.20;;;0.20;;
37299;SDS011;23184;51.902;12.836;2022-10-16T13:28:37;1.85;;;0.47;;
37299;SDS011;23184;51.902;12.836;2022-10-16T13:31:03;0.20;;;0.15;;
37299;SDS011;23184;51.902;12.836;2022-10-16T13:36:02;0.83;;;0.23;;
37299;SDS011;23184;51.902;12.836;2022-10-16T13:38:30;0.52;;;0.30;;
37299;SDS011;23184;51.902;12.836;2022-10-16T13:41:01;1.17;;;0.22;;
37299;SDS011;23184;51.902;12.836;2022-10-16T13:43:42;0.30;;;0.30;;
37299;SDS011;23184;51.902;12.836;2022-10-16T13:46:21;0.88;;;0.50;;
37299;SDS011;23184;51.902;12.836;2022-10-16T13:49:02;2.30;;;0.40;;
37299;SDS011;23184;51.902;12.836;2022-10-16T13:51:30;0.25;;;0.20;;
37299;SDS011;23184;51.902;12.836;2022-10-16T13:53:57;0.20;;;0.15;;
37299;SDS011;23184;51.902;12.836;2022-10-16T13:56:27;0.28;;;0.20;;
37299;SDS011;23184;51.902;12.836;2022-10-16T13:59:01;3.75;;;0.25;;
37299;SDS011;23184;51.902;12.836;2022-10-16T14:01:34;0.50;;;0.30;;
37299;SDS011;23184;51.902;12.836;2022-10-16T14:04:10;1.55;;;0.30;;
37299;SDS011;23184;51.902;12.836;2022-10-16T14:06:41;0.38;;;0.38;;
37299;SDS011;23184;51.902;12.836;2022-10-16T14:09:08;0.20;;;0.20;;
37299;SDS011;23184;51.902;12.836;2022-10-16T14:11:48;1.75;;;0.30;;
37299;SDS011;23184;51.902;12.836;2022-10-16T14:14:16;0.60;;;0.30;;
37299;SDS011;23184;51.902;12.836;2022-10-16T14:16:43;0.55;;;0.30;;
37299;SDS011;23184;51.902;12.836;2022-10-16T14:19:19;0.43;;;0.30;;
37299;SDS011;23184;51.902;12.836;2022-10-16T14:21:48;1.35;;;0.20;;
37299;SDS011;23184;51.902;12.836;2022-10-16T14:26:55;0.77;;;0.32;;
37299;SDS011;23184;51.902;12.836;2022-10-16T14:29:21;1.42;;;0.40;;
37299;SDS011;23184;51.902;12.836;2022-10-16T14:32:22;1.55;;;0.38;;
37299;SDS011;23184;51.902;12.836;2022-10-16T14:34:52;2.83;;;0.30;;
37299;SDS011;23184;51.902;12.836;2022-10-16T14:37:27;0.40;;;0.32;;
37299;SDS011;23184;51.902;12.836;2022-10-16T14:39:53;0.30;;;0.30;;
37299;SDS011;23184;51.902;12.836;2022-10-16T14:42:20;0.73;;;0.20;;
37299;SDS011;23184;51.902;12.836;2022-10-16T14:44:51;0.57;;;0.32;;
37299;SDS011;23184;51.902;12.836;2022-10-16T14:47:19;0.70;;;0.40;;
37299;SDS011;23184;51.902;12.836;2022-10-16T14:49:49;0.32;;;0.32;;
37299;SDS011;23184;51.902;12.836;2022-10-16T14:52:15;0.75;;;0.40;;
37299;SDS011;23184;51.902;12.836;2022-10-16T14:54:41;1.80;;;0.38;;
37299;SDS011;23184;51.902;12.836;2022-10-16T14:57:17;2.85;;;0.50;;
37299;SDS011;23184;51.902;12.836;2022-10-16T14:59:45;4.43;;;0.40;;
37299;SDS011;23184;51.902;12.836;2022-10-16T15:04:45;0.25;;;0.20;;
37299;SDS011;23184;51.902;12.836;2022-10-16T15:07:11;1.90;;;0.45;;
37299;SDS011;23184;51.902;12.836;2022-10-16T15:09:37;0.50;;;0.50;;
37299;SDS011;23184;51.902;12.836;2022-10-16T15:12:02;2.83;;;0.47;;
37299;SDS011;23184;51.902;12.836;2022-10-16T15:14:28;2.70;;;0.50;;
37299;SDS011;23184;51.902;12.836;2022-10-16T15:16:54;2.15;;;0.60;;
37299;SDS011;23184;51.902;12.836;2022-10-16T15:19:19;1.08;;;0.50;;
37299;SDS011;23184;51.902;12.836;2022-10-16T15:21:45;3.28;;;0.57;;
37299;SDS011;23184;51.902;12.836;2022-10-16T15:24:12;2.58;;;0.70;;
37299;SDS011;23184;51.902;12.836;2022-10-16T15:26:38;1.25;;;0.40;;
37299;SDS011;23184;51.902;12.836;2022-10-16T15:29:04;1.90;;;0.57;;
37299;SDS011;23184;51.902;12.836;2022-10-16T15:31:30;2.53;;;0.50;;
37299;SDS011;23184;51.902;12.836;2022-10-16T15:33:56;2.40;;;0.43;;
37299;SDS011;23184;51.902;12.836;2022-10-16T15:36:31;0.95;;;0.50;;
37299;SDS011;23184;51.902;12.836;2022-10-16T15:39:19;2.55;;;0.45;;
37299;SDS011;23184;51.902;12.836;2022-10-16T15:41:46;1.35;;;0.50;;
37299;SDS011;23184;51.902;12.836;2022-10-16T15:44:18;0.88;;;0.55;;
37299;SDS011;23184;51.902;12.836;2022-10-16T15:46:45;0.40;;;0.40;;
37299;SDS011;23184;51.902;12.836;2022-10-16T15:49:11;1.63;;;0.52;;
37299;SDS011;23184;51.902;12.836;2022-10-16T15:51:38;0.88;;;0.65;;
37299;SDS011;23184;51.902;12.836;2022-10-16T15:54:04;1.40;;;0.47;;
37299;SDS011;23184;51.902;12.836;2022-10-16T15:56:30;3.53;;;1.08;;
37299;SDS011;23184;51.902;12.836;2022-10-16T15:58:58;0.65;;;0.35;;
37299;SDS011;23184;51.902;12.836;2022-10-16T16:01:24;1.58;;;0.40;;
37299;SDS011;23184;51.902;12.836;2022-10-16T16:03:53;1.38;;;0.68;;
37299;SDS011;23184;51.902;12.836;2022-10-16T16:06:19;2.15;;;0.57;;
37299;SDS011;23184;51.902;12.836;2022-10-16T16:08:45;1.75;;;0.50;;
37299;SDS011;23184;51.902;12.836;2022-10-16T16:11:11;1.88;;;0.63;;
37299;SDS011;23184;51.902;12.836;2022-10-16T16:13:39;0.98;;;0.50;;
37299;SDS011;23184;51.902;12.836;2022-10-16T16:16:09;3.50;;;0.50;;
37299;SDS011;23184;51.902;12.836;2022-10-16T16:18:37;2.78;;;1.02;;
37299;SDS011;23184;51.902;12.836;2022-10-16T16:21:03;0.50;;;0.50;;
37299;SDS011;23184;51.902;12.836;2022-10-16T16:23:30;0.98;;;0.70;;